Time;durP1;ratioP1;P1;durP2;ratioP2;P2;SDS_P1;SDS_P2;PMS_P1;PMS_P2;Temp;Humidity;BMP_temperature;BMP_pressure;BME280_temperature;BME280_humidity;BME280_pressure;Samples;Min_cycle;Max_cycle;Signal;HPM_P1;HPM_P2
2022/02/15 00:00:23;;;;;;;101.10;47.72;;;;;;;1.54;69.39;95896.06;5025420;28;20516;-77
2022/02/15 00:02:49;;;;;;;92.68;45.58;;;;;;;1.59;68.73;95888.66;5024571;28;20026;-75
2022/02/15 00:05:15;;;;;;;90.18;43.97;;;;;;;1.61;68.89;95880.63;5025617;28;20412;-75
2022/02/15 00:07:40;;;;;;;87.20;41.95;;;;;;;1.62;69.97;95886.72;5006210;28;20053;-76
2022/02/15 00:10:08;;;;;;;89.45;44.10;;;;;;;1.54;68.83;95874.91;5025425;28;20029;-77
2022/02/15 00:12:35;;;;;;;94.78;44.63;;;;;;;1.37;69.68;95883.22;5024484;28;20033;-77
2022/02/15 00:15:01;;;;;;;82.05;40.85;;;;;;;1.39;69.41;95883.94;5007447;28;20480;-77
2022/02/15 00:17:26;;;;;;;87.88;42.60;;;;;;;1.23;69.75;95877.94;5025012;28;20034;-76
2022/02/15 00:19:52;;;;;;;84.57;41.78;;;;;;;1.26;70.49;95879.50;5023719;28;20476;-76
2022/02/15 00:22:17;;;;;;;90.18;42.22;;;;;;;1.30;70.55;95880.16;5023848;28;20408;-76
2022/02/15 00:24:42;;;;;;;90.47;43.67;;;;;;;1.24;69.91;95878.78;5024457;28;20409;-74
2022/02/15 00:27:08;;;;;;;81.68;40.75;;;;;;;1.25;70.76;95877.84;5025303;28;20404;-76
2022/02/15 00:29:33;;;;;;;89.80;44.00;;;;;;;1.37;70.15;95873.47;5022986;28;20404;-77
2022/02/15 00:31:59;;;;;;;81.78;41.65;;;;;;;1.30;69.77;95878.34;5023853;28;20463;-77
2022/02/15 00:34:24;;;;;;;88.80;43.65;;;;;;;1.29;69.90;95881.94;5024554;28;20454;-77
2022/02/15 00:36:50;;;;;;;81.97;41.38;;;;;;;1.26;70.10;95895.38;5023469;28;20022;-77
2022/02/15 00:39:15;;;;;;;96.15;44.13;;;;;;;1.02;71.07;95890.00;5025063;28;20034;-77
2022/02/15 00:41:41;;;;;;;77.05;39.97;;;;;;;1.20;69.85;95893.16;5024426;28;20033;-78
2022/02/15 00:44:06;;;;;;;92.47;43.05;;;;;;;1.12;70.55;95880.50;5025411;28;20041;-77
2022/02/15 00:46:32;;;;;;;99.03;45.10;;;;;;;1.08;70.08;95885.13;5024298;28;20026;-77
2022/02/15 00:48:57;;;;;;;87.40;43.60;;;;;;;1.04;70.62;95886.31;5024742;28;20111;-77
2022/02/15 00:51:22;;;;;;;71.45;37.92;;;;;;;1.19;69.82;95886.19;5022820;28;20038;-77
2022/02/15 00:53:48;;;;;;;76.57;39.28;;;;;;;1.20;69.33;95883.44;5024847;28;20033;-76
2022/02/15 00:56:13;;;;;;;80.47;40.45;;;;;;;1.19;70.63;95886.19;5024789;28;20044;-77
2022/02/15 00:58:39;;;;;;;73.88;39.55;;;;;;;1.20;70.20;95875.50;5025029;28;20381;-76
2022/02/15 01:01:04;;;;;;;75.68;39.25;;;;;;;1.14;70.16;95877.75;5028751;28;20033;-76
2022/02/15 01:03:29;;;;;;;81.53;39.65;;;;;;;1.12;70.33;95872.56;5028050;28;20056;-76
2022/02/15 01:05:57;;;;;;;74.95;37.13;;;;;;;0.98;70.26;95866.44;5027327;28;20420;-76
2022/02/15 01:08:22;;;;;;;68.80;36.40;;;;;;;1.02;71.24;95861.78;5027316;28;20065;-76
2022/02/15 01:10:48;;;;;;;72.22;36.13;;;;;;;1.14;71.23;95856.59;5028780;28;20411;-77
2022/02/15 01:13:14;;;;;;;68.13;36.22;;;;;;;1.02;71.37;95855.66;5027555;28;20100;-77
2022/02/15 01:15:40;;;;;;;73.57;37.58;;;;;;;0.98;72.01;95860.31;5028645;28;20076;-77
2022/02/15 01:18:05;;;;;;;72.40;38.17;;;;;;;0.97;73.40;95848.03;5028184;28;20496;-76
2022/02/15 01:20:31;;;;;;;71.35;36.80;;;;;;;1.03;72.22;95855.53;5027963;28;20489;-77
2022/02/15 01:22:56;;;;;;;74.57;36.22;;;;;;;1.16;71.38;95849.41;5028543;28;20033;-77
2022/02/15 01:25:23;;;;;;;67.43;35.80;;;;;;;1.10;71.18;95840.97;5027891;28;20029;-77
2022/02/15 01:27:49;;;;;;;69.60;36.10;;;;;;;1.01;71.29;95838.13;5026994;28;20510;-77
2022/02/15 01:30:15;;;;;;;74.10;38.67;;;;;;;0.70;72.57;95836.66;5027079;28;20108;-79
2022/02/15 01:32:40;;;;;;;74.10;36.53;;;;;;;0.67;74.26;95833.38;5026856;28;20029;-76
2022/02/15 01:35:06;;;;;;;67.60;36.03;;;;;;;0.71;74.01;95826.97;5027256;28;20026;-77
2022/02/15 01:37:31;;;;;;;69.65;34.90;;;;;;;0.81;72.61;95832.44;5027854;28;20021;-77
2022/02/15 01:39:56;;;;;;;63.95;33.05;;;;;;;0.85;72.38;95826.00;5028071;28;20534;-77
2022/02/15 01:42:22;;;;;;;68.10;34.60;;;;;;;0.88;72.33;95832.84;5027297;28;20103;-76
2022/02/15 01:44:47;;;;;;;65.60;36.40;;;;;;;0.87;71.94;95832.03;5027879;28;20581;-76
2022/02/15 01:47:26;;;;;;;63.83;33.25;;;;;;;0.90;71.69;95833.59;5026656;28;20575;-76
2022/02/15 01:49:52;;;;;;;65.28;33.90;;;;;;;0.98;72.17;95821.53;5027986;28;20018;-76
2022/02/15 01:52:20;;;;;;;69.03;34.85;;;;;;;1.00;70.80;95818.78;5026616;28;20022;-76
2022/02/15 01:54:50;;;;;;;66.78;33.90;;;;;;;1.01;71.02;95824.91;5027894;28;20397;-77
2022/02/15 01:57:16;;;;;;;66.90;34.45;;;;;;;0.93;70.56;95838.66;5026333;28;20033;-77
2022/02/15 01:59:41;;;;;;;73.57;36.97;;;;;;;0.95;70.08;95847.34;5009658;28;20377;-76
2022/02/15 02:02:07;;;;;;;72.88;36.50;;;;;;;1.04;70.94;95843.19;5026055;28;20507;-76
2022/02/15 02:07:16;;;;;;;81.82;36.08;;;;;;;0.92;71.63;95836.97;5027290;28;20076;-77
2022/02/15 02:09:41;;;;;;;79.40;36.25;;;;;;;0.93;72.07;95831.59;5026816;28;20034;-77
2022/02/15 02:12:07;;;;;;;72.22;35.72;;;;;;;0.89;72.79;95837.19;5026639;28;20036;-77
2022/02/15 02:14:33;;;;;;;81.38;36.58;;;;;;;0.74;72.96;95839.94;5027310;28;20025;-76
2022/02/15 02:16:58;;;;;;;78.10;37.50;;;;;;;0.82;73.41;95836.78;5026840;28;20021;-77
2022/02/15 02:19:24;;;;;;;68.10;35.25;;;;;;;0.85;73.84;95837.38;5027299;28;20025;-77
2022/02/15 02:21:50;;;;;;;66.70;34.63;;;;;;;0.85;73.17;95834.75;5024623;28;20037;-76
2022/02/15 02:24:15;;;;;;;67.57;34.75;;;;;;;0.89;72.43;95834.56;5027144;28;20033;-75
2022/02/15 02:26:40;;;;;;;63.42;33.42;;;;;;;0.90;72.01;95834.44;5026150;28;20480;-77
2022/02/15 02:29:06;;;;;;;72.53;34.88;;;;;;;0.79;72.85;95829.88;5025885;28;20437;-80
2022/02/15 02:31:31;;;;;;;59.35;31.23;;;;;;;0.96;70.80;95838.44;5026442;28;20025;-76
2022/02/15 02:34:00;;;;;;;59.22;31.50;;;;;;;0.89;72.01;95838.03;5026853;28;20231;-76
2022/02/15 02:36:25;;;;;;;59.25;31.75;;;;;;;0.88;72.41;95840.78;5025292;28;20200;-75
2022/02/15 02:38:51;;;;;;;54.15;30.00;;;;;;;0.81;72.43;95843.00;5026121;28;20017;-77
2022/02/15 02:41:16;;;;;;;56.05;30.48;;;;;;;0.76;72.95;95848.59;5027051;28;20032;-77
2022/02/15 02:43:41;;;;;;;61.70;32.22;;;;;;;0.77;73.02;95850.31;5025802;28;20040;-77
2022/02/15 02:46:07;;;;;;;64.55;33.10;;;;;;;0.77;72.56;95847.66;5027122;28;20026;-75
2022/02/15 02:48:32;;;;;;;66.07;33.03;;;;;;;0.66;72.79;95851.00;5025666;28;20030;-77
2022/02/15 02:50:58;;;;;;;72.88;35.50;;;;;;;0.68;72.96;95858.81;5026583;28;20033;-76
2022/02/15 02:53:24;;;;;;;66.18;33.22;;;;;;;0.72;72.92;95863.81;5026980;28;20033;-76
2022/02/15 02:55:49;;;;;;;66.13;33.25;;;;;;;0.74;72.71;95861.06;5025977;28;20033;-77
2022/02/15 02:58:15;;;;;;;63.72;31.98;;;;;;;0.80;72.35;95862.44;5026988;28;20392;-77
2022/02/15 03:00:40;;;;;;;60.40;31.25;;;;;;;0.78;72.20;95866.97;5007768;28;20036;-76
2022/02/15 03:03:07;;;;;;;57.72;30.60;;;;;;;0.86;71.92;95867.28;5026853;28;20063;-77
2022/02/15 03:05:36;;;;;;;61.25;32.45;;;;;;;0.74;72.55;95866.34;5024007;28;20468;-77
2022/02/15 03:08:01;;;;;;;67.07;32.10;;;;;;;0.74;71.75;95867.19;5026290;28;20050;-75
2022/02/15 03:10:27;;;;;;;67.82;32.67;;;;;;;0.71;71.92;95861.28;5024710;28;20076;-76
2022/02/15 03:12:52;;;;;;;60.25;30.77;;;;;;;0.73;72.31;95865.50;5008191;28;20021;-76
2022/02/15 03:15:18;;;;;;;65.07;33.15;;;;;;;0.65;73.14;95872.25;5026408;28;20025;-76
2022/02/15 03:17:43;;;;;;;58.45;31.95;;;;;;;0.61;73.54;95875.09;5025184;28;20025;-76
2022/02/15 03:20:09;;;;;;;73.70;34.30;;;;;;;0.62;72.57;95868.03;5026570;28;20469;-76
2022/02/15 03:22:35;;;;;;;65.30;32.78;;;;;;;0.68;72.58;95867.59;5024126;28;20103;-78
2022/02/15 03:25:01;;;;;;;65.13;33.72;;;;;;;0.73;72.98;95870.78;5026153;28;20464;-78
2022/02/15 03:27:26;;;;;;;56.33;31.50;;;;;;;0.69;73.29;95876.38;5025118;28;20032;-77
2022/02/15 03:29:51;;;;;;;65.05;33.03;;;;;;;0.69;73.18;95873.75;5025764;28;20033;-78
2022/02/15 03:32:17;;;;;;;71.43;34.50;;;;;;;0.70;72.55;95872.78;5024635;28;20538;-77
2022/02/15 03:34:42;;;;;;;65.47;34.30;;;;;;;0.69;72.08;95879.03;5024984;28;20511;-77
2022/02/15 03:37:08;;;;;;;58.88;33.03;;;;;;;0.64;71.84;95881.97;5024551;28;20057;-77
2022/02/15 03:39:35;;;;;;;71.75;33.45;;;;;;;0.57;71.59;95885.97;5023521;28;20092;-77
2022/02/15 03:44:46;;;;;;;59.97;30.98;;;;;;;0.62;70.59;95889.16;5025340;28;20095;-77
2022/02/15 03:47:12;;;;;;;58.63;32.47;;;;;;;0.61;71.00;95890.94;5025546;28;20025;-75
2022/02/15 03:49:37;;;;;;;58.90;29.63;;;;;;;0.56;69.44;95882.50;5025458;28;20048;-79
2022/02/15 03:52:03;;;;;;;61.75;31.05;;;;;;;0.57;70.05;95885.97;5024540;28;20026;-76
2022/02/15 03:54:29;;;;;;;53.35;29.75;;;;;;;0.46;70.35;95884.06;5025993;28;20142;-77
2022/02/15 03:56:54;;;;;;;59.45;31.80;;;;;;;0.41;69.90;95880.88;5024459;28;20026;-77
2022/02/15 03:59:19;;;;;;;58.42;28.67;;;;;;;0.20;70.60;95884.84;5025805;28;20033;-77
2022/02/15 04:01:45;;;;;;;61.25;32.28;;;;;;;0.13;71.59;95888.81;5023112;28;20033;-77
2022/02/15 04:04:11;;;;;;;54.70;29.00;;;;;;;0.24;70.60;95885.50;5024272;28;20029;-77
2022/02/15 04:06:36;;;;;;;56.38;29.63;;;;;;;0.10;69.93;95878.47;5024714;28;20029;-76
2022/02/15 04:09:02;;;;;;;58.97;31.23;;;;;;;-0.02;70.04;95880.97;5023284;28;20056;-76
2022/02/15 04:11:27;;;;;;;60.05;31.13;;;;;;;-0.08;70.57;95880.56;5025419;28;20026;-76
2022/02/15 04:13:53;;;;;;;54.75;31.00;;;;;;;-0.02;71.00;95877.50;5024599;28;20040;-76
2022/02/15 04:16:18;;;;;;;59.30;30.77;;;;;;;-0.05;72.68;95885.63;5024144;28;20471;-76
2022/02/15 04:18:47;;;;;;;62.50;31.90;;;;;;;-0.02;72.97;95883.59;5024289;28;20033;-76
2022/02/15 04:21:13;;;;;;;68.43;32.95;;;;;;;0.04;72.04;95884.16;5024102;28;20112;-77
2022/02/15 04:23:39;;;;;;;67.32;34.47;;;;;;;0.04;72.23;95884.16;5024242;28;20033;-77
2022/02/15 04:26:04;;;;;;;55.50;29.95;;;;;;;0.01;71.59;95874.66;5024701;28;20032;-77
2022/02/15 04:28:30;;;;;;;57.55;30.65;;;;;;;-0.05;71.77;95877.72;5023601;28;20025;-78
2022/02/15 04:30:55;;;;;;;70.43;37.80;;;;;;;0.02;72.58;95886.91;5023156;28;20416;-75
2022/02/15 04:33:21;;;;;;;79.25;39.22;;;;;;;0.00;72.43;95886.19;5025281;28;20349;-77
2022/02/15 04:35:46;;;;;;;83.93;39.97;;;;;;;0.03;72.98;95885.97;5027936;28;20427;-76
2022/02/15 04:38:12;;;;;;;64.88;34.20;;;;;;;0.01;72.58;95893.13;5029090;28;20034;-76
2022/02/15 04:40:38;;;;;;;62.00;34.55;;;;;;;-0.03;72.10;95889.84;5027940;28;20029;-76
2022/02/15 04:43:04;;;;;;;63.75;34.03;;;;;;;-0.02;72.20;95880.16;5028785;28;20079;-77
2022/02/15 04:45:29;;;;;;;69.55;33.45;;;;;;;-0.06;72.24;95884.78;5027083;28;20057;-77
2022/02/15 04:47:55;;;;;;;71.97;36.83;;;;;;;0.00;72.41;95891.44;5028332;28;20455;-78
2022/02/15 04:50:20;;;;;;;70.03;36.53;;;;;;;-0.02;72.84;95891.53;5028769;28;20036;-78
2022/02/15 04:52:45;;;;;;;74.00;35.80;;;;;;;0.11;71.90;95891.56;5028277;28;20048;-75
2022/02/15 04:55:11;;;;;;;56.63;32.05;;;;;;;0.05;70.21;95885.88;5029162;28;20448;-76
2022/02/15 04:57:36;;;;;;;62.25;31.38;;;;;;;0.01;70.04;95887.84;5027896;28;20034;-76
2022/02/15 05:00:03;;;;;;;58.20;30.58;;;;;;;0.01;69.92;95895.78;5028731;28;20052;-77
2022/02/15 05:02:28;;;;;;;61.80;31.95;;;;;;;-0.02;70.10;95891.53;5027792;28;20029;-76
2022/02/15 05:04:55;;;;;;;60.45;31.95;;;;;;;-0.07;69.35;95888.34;5028425;28;20083;-77
2022/02/15 05:07:21;;;;;;;65.30;35.05;;;;;;;-0.14;70.57;95893.19;5027939;28;20571;-77
2022/02/15 05:09:47;;;;;;;58.38;33.00;;;;;;;-0.21;70.66;95902.41;5028042;28;20060;-78
2022/02/15 05:12:12;;;;;;;72.30;36.90;;;;;;;-0.17;71.61;95903.94;5028661;28;20030;-78
2022/02/15 05:14:38;;;;;;;74.30;36.33;;;;;;;-0.16;71.54;95902.97;5027807;28;20025;-77
2022/02/15 05:17:04;;;;;;;68.18;33.60;;;;;;;-0.07;71.32;95914.72;5027241;28;20026;-78
2022/02/15 05:19:29;;;;;;;66.55;35.35;;;;;;;-0.02;71.38;95901.25;5026321;28;20021;-77
2022/02/15 05:21:54;;;;;;;66.15;34.85;;;;;;;0.01;71.43;95911.59;5029021;28;20446;-78
2022/02/15 05:24:20;;;;;;;68.72;35.05;;;;;;;0.06;70.80;95906.00;5026031;28;20400;-75
2022/02/15 05:26:45;;;;;;;69.97;34.17;;;;;;;0.07;70.12;95905.91;5026840;28;20091;-78
2022/02/15 05:29:11;;;;;;;71.07;35.90;;;;;;;0.14;71.18;95911.63;5028236;28;20025;-79
2022/02/15 05:31:36;;;;;;;69.85;37.22;;;;;;;0.15;70.80;95917.75;5026842;28;20036;-78
2022/02/15 05:34:02;;;;;;;69.10;35.97;;;;;;;-0.10;70.29;95924.63;5028365;28;20404;-78
2022/02/15 05:36:27;;;;;;;76.88;39.35;;;;;;;-0.13;70.63;95921.22;5026932;28;20385;-77
2022/02/15 05:38:53;;;;;;;76.57;39.17;;;;;;;-0.26;70.26;95922.97;5027960;28;20411;-77
2022/02/15 05:41:18;;;;;;;72.13;37.78;;;;;;;-0.19;70.24;95928.69;5027038;28;20021;-75
2022/02/15 05:43:43;;;;;;;84.63;41.30;;;;;;;-0.08;70.65;95922.75;5027969;28;20079;-77
2022/02/15 05:46:10;;;;;;;79.82;40.28;;;;;;;0.00;69.63;95938.94;5026100;28;20025;-79
2022/02/15 05:48:35;;;;;;;80.97;40.08;;;;;;;0.05;69.80;95947.38;5027608;28;20485;-77
2022/02/15 05:51:01;;;;;;;85.25;43.63;;;;;;;0.04;70.39;95947.47;5027911;28;20033;-78
2022/02/15 05:53:27;;;;;;;85.70;41.72;;;;;;;0.09;70.31;95950.66;5026967;28;20040;-77
2022/02/15 05:55:55;;;;;;;70.38;37.10;;;;;;;0.17;70.36;95943.09;5010680;28;20026;-77
2022/02/15 05:58:21;;;;;;;67.75;35.05;;;;;;;0.21;68.43;95951.66;5026549;28;20034;-78
2022/02/15 06:00:47;;;;;;;62.47;33.90;;;;;;;0.23;68.94;95947.13;5027939;28;20542;-77
2022/02/15 06:05:56;;;;;;;62.50;32.58;;;;;;;0.14;70.21;95947.72;5027421;28;20076;-77
2022/02/15 06:08:22;;;;;;;54.45;30.20;;;;;;;0.12;71.24;95934.63;5026959;28;20046;-78
2022/02/15 06:10:47;;;;;;;55.65;29.70;;;;;;;0.15;70.94;95949.41;5026933;28;20022;-77
2022/02/15 06:13:16;;;;;;;57.53;30.35;;;;;;;0.12;71.23;95945.19;5027786;28;20029;-77
2022/02/15 06:15:41;;;;;;;60.20;32.20;;;;;;;0.18;71.90;95954.50;5026557;28;20072;-77
2022/02/15 06:18:07;;;;;;;56.53;30.85;;;;;;;0.23;71.77;95950.59;5027451;28;20021;-77
2022/02/15 06:20:32;;;;;;;63.38;34.33;;;;;;;0.27;71.07;95959.19;5026881;28;20455;-77
2022/02/15 06:22:58;;;;;;;67.35;36.42;;;;;;;0.36;71.66;95957.72;5026955;28;20029;-76
2022/02/15 06:25:23;;;;;;;63.50;34.92;;;;;;;0.34;71.55;95955.19;5026683;28;20032;-77
2022/02/15 06:27:49;;;;;;;59.13;33.45;;;;;;;0.32;71.72;95961.50;5026459;28;20025;-77
2022/02/15 06:30:14;;;;;;;63.10;33.65;;;;;;;0.35;72.25;95967.44;5027369;28;20071;-76
2022/02/15 06:32:40;;;;;;;75.53;36.67;;;;;;;0.40;72.32;95964.50;5024737;28;20286;-77
2022/02/15 06:35:06;;;;;;;76.40;35.95;;;;;;;0.42;72.48;95970.50;5025801;28;20484;-78
2022/02/15 06:37:31;;;;;;;72.45;38.38;;;;;;;0.52;71.91;95970.75;5025709;28;20073;-77
2022/02/15 06:39:57;;;;;;;73.65;36.00;;;;;;;0.58;71.55;95972.97;5026977;28;20026;-76
2022/02/15 06:42:22;;;;;;;71.47;35.67;;;;;;;0.58;72.18;95969.50;5026395;28;20033;-77
2022/02/15 06:44:48;;;;;;;75.05;36.13;;;;;;;0.63;71.73;95970.03;5026454;28;20021;-77
2022/02/15 06:47:13;;;;;;;69.65;36.47;;;;;;;0.66;72.15;95969.81;5027094;28;20029;-77
2022/02/15 06:49:39;;;;;;;66.57;35.33;;;;;;;0.77;71.87;95961.22;5026342;28;20022;-76
2022/02/15 06:52:05;;;;;;;72.18;36.03;;;;;;;0.77;71.00;95963.84;5029599;28;20033;-77
2022/02/15 06:54:30;;;;;;;66.95;35.47;;;;;;;0.83;71.22;95965.22;5026515;28;20057;-76
2022/02/15 06:56:55;;;;;;;69.45;35.08;;;;;;;0.96;71.42;95970.53;5029221;28;20032;-76
2022/02/15 06:59:21;;;;;;;63.50;32.22;;;;;;;1.00;71.83;95974.63;5028712;28;20025;-77
2022/02/15 07:01:46;;;;;;;67.20;33.70;;;;;;;1.07;71.99;95975.91;5027362;28;20048;-76
2022/02/15 07:04:12;;;;;;;67.75;34.90;;;;;;;1.18;72.21;95984.91;5026310;28;20022;-78
2022/02/15 07:06:38;;;;;;;71.53;34.83;;;;;;;1.32;72.06;95982.16;5025644;28;20029;-77
2022/02/15 07:09:04;;;;;;;77.00;35.17;;;;;;;1.48;70.89;95981.94;5026206;28;20053;-76
2022/02/15 07:11:29;;;;;;;68.60;34.20;;;;;;;1.54;70.65;95982.47;5025776;28;20022;-77
2022/02/15 07:13:54;;;;;;;71.05;33.15;;;;;;;1.60;70.67;95972.31;5026547;28;20025;-76
2022/02/15 07:16:20;;;;;;;80.40;35.88;;;;;;;1.65;70.52;95974.63;5025360;28;20029;-76
2022/02/15 07:18:45;;;;;;;79.78;37.67;;;;;;;1.56;71.02;95972.63;5026014;28;20021;-76
2022/02/15 07:21:11;;;;;;;85.60;40.67;;;;;;;1.65;71.81;95982.56;5025545;28;20030;-77
2022/02/15 07:23:36;;;;;;;116.78;51.65;;;;;;;1.47;72.48;95985.53;5025529;28;20523;-76
2022/02/15 07:26:02;;;;;;;121.22;52.70;;;;;;;1.50;72.67;95984.47;5024616;28;20492;-76
2022/02/15 07:28:28;;;;;;;123.55;53.00;;;;;;;1.60;72.01;95980.25;5025595;28;20480;-76
2022/02/15 07:30:54;;;;;;;129.18;57.08;;;;;;;1.71;72.19;95968.03;5026258;28;20025;-78
2022/02/15 07:33:20;;;;;;;117.60;55.33;;;;;;;1.80;71.51;95969.19;5023754;28;20389;-77
2022/02/15 07:35:45;;;;;;;117.57;56.30;;;;;;;1.90;71.29;95966.75;5026001;28;20032;-77
2022/02/15 07:38:11;;;;;;;120.32;54.55;;;;;;;1.96;71.89;95979.53;5023964;28;20539;-77
2022/02/15 07:40:36;;;;;;;120.38;56.28;;;;;;;1.89;72.12;95973.84;5025757;28;20075;-76
2022/02/15 07:43:02;;;;;;;113.13;52.97;;;;;;;2.06;71.15;95971.78;5023864;28;20029;-76
2022/02/15 07:45:27;;;;;;;120.82;54.95;;;;;;;1.85;72.18;95978.50;5025660;28;20030;-75
2022/02/15 07:47:53;;;;;;;112.72;51.83;;;;;;;1.77;73.60;95975.56;5025575;28;20492;-76
2022/02/15 07:50:20;;;;;;;96.22;44.05;;;;;;;1.98;73.01;95972.34;5024183;28;20052;-76
2022/02/15 07:52:47;;;;;;;87.88;43.70;;;;;;;2.11;72.28;95974.94;5025648;28;20095;-76
2022/02/15 07:55:13;;;;;;;104.20;49.00;;;;;;;1.95;72.49;95967.28;5024546;28;20060;-77
2022/02/15 07:57:38;;;;;;;107.13;52.20;;;;;;;1.92;73.65;95967.50;5025926;28;20026;-76
2022/02/15 08:00:05;;;;;;;110.65;52.38;;;;;;;2.04;73.82;95974.53;5024761;28;20030;-76
2022/02/15 08:02:31;;;;;;;109.15;51.20;;;;;;;2.24;72.52;95966.97;5023959;28;20036;-77
2022/02/15 08:04:57;;;;;;;105.65;51.60;;;;;;;2.44;71.96;95964.63;5024997;28;20120;-76
2022/02/15 08:07:22;;;;;;;92.32;47.45;;;;;;;2.58;71.68;95964.47;5024685;28;20022;-81
2022/02/15 08:09:47;;;;;;;100.30;48.05;;;;;;;2.79;71.22;95968.28;5023450;28;20021;-77
2022/02/15 08:12:17;;;;;;;101.18;48.55;;;;;;;2.93;70.14;95972.53;5024587;28;20083;-77
2022/02/15 08:14:43;;;;;;;95.03;47.50;;;;;;;3.11;70.77;95969.44;5025552;28;20403;-77
2022/02/15 08:17:09;;;;;;;100.25;48.28;;;;;;;3.29;70.03;95969.84;5022769;28;20557;-77
2022/02/15 08:19:34;;;;;;;98.93;49.65;;;;;;;3.28;70.65;95974.31;5025130;28;20421;-78
2022/02/15 08:22:00;;;;;;;106.88;48.97;;;;;;;3.50;69.79;95980.59;5024589;28;20040;-76
2022/02/15 08:24:29;;;;;;;94.55;46.80;;;;;;;3.47;70.01;95970.22;5024760;28;20407;-77
2022/02/15 08:26:55;;;;;;;95.95;46.67;;;;;;;3.41;70.44;95968.91;5023852;28;20041;-77
2022/02/15 08:29:20;;;;;;;100.07;48.15;;;;;;;3.56;69.98;95961.53;5023220;28;20049;-77
2022/02/15 08:31:46;;;;;;;101.60;49.28;;;;;;;3.78;69.05;95967.81;5025426;28;20411;-77
2022/02/15 08:34:11;;;;;;;92.15;45.22;;;;;;;3.91;69.16;95959.72;5024126;28;20026;-77
2022/02/15 08:36:37;;;;;;;87.55;43.78;;;;;;;3.98;69.18;95957.44;5025259;28;20542;-77
2022/02/15 08:39:03;;;;;;;85.15;44.75;;;;;;;4.08;68.72;95957.50;5024208;28;20044;-78
2022/02/15 08:41:28;;;;;;;85.43;45.97;;;;;;;4.15;68.17;95956.06;5024759;28;20507;-76
2022/02/15 08:43:54;;;;;;;83.30;45.63;;;;;;;4.20;68.29;95956.53;5024999;28;20108;-77
2022/02/15 08:46:19;;;;;;;98.05;49.35;;;;;;;4.25;66.92;95952.66;5024366;28;20025;-77
2022/02/15 08:48:45;;;;;;;86.95;44.50;;;;;;;4.45;66.35;95958.97;5025483;28;20377;-77
2022/02/15 08:51:10;;;;;;;93.60;46.00;;;;;;;4.33;67.33;95964.34;5023934;28;20500;-77
2022/02/15 08:53:36;;;;;;;91.10;45.75;;;;;;;4.38;68.39;95960.47;5025339;28;20026;-76
2022/02/15 08:56:01;;;;;;;80.65;43.40;;;;;;;4.52;67.62;95952.22;5024063;28;20025;-76
2022/02/15 08:58:27;;;;;;;75.90;41.25;;;;;;;4.71;67.17;95950.69;5025062;28;20030;-76
2022/02/15 09:00:52;;;;;;;72.88;39.85;;;;;;;4.97;66.26;95947.66;5024597;28;20052;-77
2022/02/15 09:03:18;;;;;;;80.03;42.55;;;;;;;5.01;65.80;95945.59;5022855;28;20030;-77
2022/02/15 09:05:43;;;;;;;75.03;38.80;;;;;;;5.17;66.34;95942.47;5023681;28;20033;-76
2022/02/15 09:08:08;;;;;;;61.70;36.17;;;;;;;5.26;65.87;95952.31;5022515;28;20049;-76
2022/02/15 09:10:37;;;;;;;57.85;34.05;;;;;;;5.32;65.20;95951.78;5023838;28;20029;-77
2022/02/15 09:13:03;;;;;;;59.75;34.78;;;;;;;5.42;65.40;95941.22;5022828;28;20026;-78
2022/02/15 09:15:28;;;;;;;60.65;35.08;;;;;;;5.49;65.12;95940.69;5024990;28;20045;-76
2022/02/15 09:17:55;;;;;;;56.80;32.35;;;;;;;5.62;64.41;95936.00;5024102;28;20075;-77
2022/02/15 09:20:21;;;;;;;54.00;31.75;;;;;;;5.73;64.82;95937.72;5023979;28;20458;-77
2022/02/15 09:22:48;;;;;;;53.67;30.05;;;;;;;5.82;63.01;95936.03;5028004;28;20033;-77
2022/02/15 09:25:13;;;;;;;51.50;32.42;;;;;;;5.72;62.96;95936.03;5027547;28;20076;-77
2022/02/15 09:27:39;;;;;;;50.70;30.75;;;;;;;5.80;62.61;95938.84;5010654;28;20554;-77
2022/02/15 09:30:05;;;;;;;54.90;30.13;;;;;;;5.91;61.90;95940.59;5027412;28;20484;-77
2022/02/15 09:32:30;;;;;;;55.47;30.90;;;;;;;6.05;62.40;95936.72;5028484;28;20350;-76
2022/02/15 09:34:56;;;;;;;50.65;30.00;;;;;;;6.01;61.88;95924.59;5027272;28;20071;-77
2022/02/15 09:37:22;;;;;;;50.80;28.77;;;;;;;5.99;62.31;95923.06;5027739;28;20307;-79
2022/02/15 09:39:48;;;;;;;47.60;29.00;;;;;;;6.00;62.78;95928.25;5027514;28;20074;-81
2022/02/15 09:42:14;;;;;;;44.78;26.40;;;;;;;6.08;62.37;95916.94;5027341;28;20113;-77
2022/02/15 09:44:40;;;;;;;40.42;24.85;;;;;;;6.24;60.88;95908.44;5028194;28;20482;-78
2022/02/15 09:47:05;;;;;;;38.60;23.67;;;;;;;6.23;59.98;95906.75;5027335;28;20026;-79
2022/02/15 09:49:49;;;;;;;44.25;25.63;;;;;;;6.01;61.10;95913.97;5026589;28;20036;-78
2022/02/15 09:52:18;;;;;;;44.97;24.95;;;;;;;6.09;61.15;95901.81;5011727;28;20064;-76
2022/02/15 09:54:45;;;;;;;42.03;25.10;;;;;;;6.10;60.43;95901.69;5027537;28;20626;-77
2022/02/15 09:57:11;;;;;;;43.55;25.70;;;;;;;6.04;60.32;95892.44;5027526;28;20053;-75
2022/02/15 09:59:36;;;;;;;40.70;23.30;;;;;;;6.09;61.54;95899.16;5027183;28;20021;-80
2022/02/15 10:02:09;;;;;;;37.67;22.75;;;;;;;5.91;61.14;95897.13;5027771;28;20030;-78
2022/02/15 10:04:35;;;;;;;37.10;23.85;;;;;;;6.00;61.37;95892.78;5009493;28;20520;-77
2022/02/15 10:07:01;;;;;;;39.60;23.33;;;;;;;6.17;61.79;95886.81;5026628;28;20030;-77
2022/02/15 10:09:27;;;;;;;32.80;17.30;;;;;;;6.28;60.18;95883.22;5026013;28;20147;-77
2022/02/15 10:11:53;;;;;;;30.13;17.98;;;;;;;6.40;59.16;95877.75;5026354;28;20037;-77
2022/02/15 10:14:19;;;;;;;25.92;16.48;;;;;;;6.40;59.21;95872.44;5027190;28;20381;-76
2022/02/15 10:16:50;;;;;;;28.17;18.48;;;;;;;6.45;59.91;95867.50;5027014;28;20052;-78
2022/02/15 10:19:26;;;;;;;25.08;16.30;;;;;;;6.60;58.70;95864.41;5027605;28;20064;-78
2022/02/15 10:21:54;;;;;;;22.23;15.73;;;;;;;6.66;58.28;95858.50;5025457;28;20033;-78
2022/02/15 10:24:21;;;;;;;26.10;16.50;;;;;;;6.54;57.77;95858.69;5026162;28;20079;-77
2022/02/15 10:26:57;;;;;;;25.92;17.42;;;;;;;6.57;58.93;95851.38;5026566;28;20087;-79
2022/02/15 10:29:24;;;;;;;24.27;15.70;;;;;;;6.50;57.72;95841.28;5026922;28;20029;-78
2022/02/15 10:31:49;;;;;;;25.42;15.88;;;;;;;6.46;57.82;95837.22;5025228;28;20029;-76
2022/02/15 10:34:15;;;;;;;25.35;15.68;;;;;;;6.60;58.16;95843.09;5025309;28;20022;-78
2022/02/15 10:36:40;;;;;;;26.88;16.38;;;;;;;6.72;57.92;95839.31;5025482;28;20021;-78
2022/02/15 10:39:06;;;;;;;27.45;17.02;;;;;;;6.81;57.99;95829.59;5026485;28;20025;-77
2022/02/15 10:41:34;;;;;;;24.75;17.30;;;;;;;6.87;58.09;95818.34;5025486;28;20032;-76
2022/02/15 10:44:00;;;;;;;25.30;16.88;;;;;;;6.97;57.87;95818.31;5026205;28;20025;-78
2022/02/15 10:46:28;;;;;;;27.25;18.58;;;;;;;7.03;57.31;95817.75;5025691;28;20018;-78
2022/02/15 10:48:53;;;;;;;33.38;19.27;;;;;;;7.23;56.65;95806.16;5026264;28;20040;-78
2022/02/15 10:51:19;;;;;;;26.67;17.90;;;;;;;7.16;56.75;95809.41;5026633;28;20032;-78
2022/02/15 10:53:44;;;;;;;30.38;17.55;;;;;;;7.32;56.40;95804.44;5025353;28;20037;-77
2022/02/15 10:56:10;;;;;;;28.42;18.08;;;;;;;7.26;56.08;95806.72;5026107;28;20533;-76
2022/02/15 10:58:35;;;;;;;27.00;17.27;;;;;;;7.24;56.61;95798.00;5026808;28;20476;-77
2022/02/15 11:01:03;;;;;;;29.27;18.83;;;;;;;7.27;56.75;95792.38;5026327;28;20028;-78
2022/02/15 11:03:30;;;;;;;29.50;17.73;;;;;;;7.34;56.20;95789.97;5026701;28;20499;-77
2022/02/15 11:05:56;;;;;;;31.38;18.15;;;;;;;7.41;55.90;95782.22;5025605;28;20047;-75
2022/02/15 11:08:22;;;;;;;27.33;17.88;;;;;;;7.51;56.11;95788.31;5024774;28;20037;-77
2022/02/15 11:10:50;;;;;;;28.88;19.30;;;;;;;7.61;55.75;95780.25;5024958;28;20026;-77
2022/02/15 11:13:16;;;;;;;29.63;17.88;;;;;;;7.62;54.77;95773.09;5026008;28;20033;-76
2022/02/15 11:15:41;;;;;;;30.15;18.85;;;;;;;7.36;55.20;95774.66;5026202;28;20455;-79
2022/02/15 11:18:10;;;;;;;25.27;17.40;;;;;;;7.49;55.18;95773.44;5025474;28;20025;-77
2022/02/15 11:20:50;;;;;;;26.98;18.73;;;;;;;7.61;55.93;95760.75;5026390;28;20045;-77
2022/02/15 11:23:26;;;;;;;31.70;18.98;;;;;;;7.72;55.27;95755.16;5025406;28;20108;-77
2022/02/15 11:26:06;;;;;;;29.17;18.83;;;;;;;7.89;54.12;95753.53;5025643;28;20029;-75